sensor_id;sensor_type;location;lat;lon;timestamp;P1;durP1;ratioP1;P2;durP2;ratioP2
14013;SDS011;49110;52.584;13.408;2023-04-06T00:00:23;7.20;;;4.30;;
14013;SDS011;49110;52.584;13.408;2023-04-06T00:01:24;6.45;;;4.43;;
14013;SDS011;49110;52.584;13.408;2023-04-06T00:02:24;6.03;;;4.33;;
14013;SDS011;49110;52.584;13.408;2023-04-06T00:03:25;6.07;;;4.23;;
14013;SDS011;49110;52.584;13.408;2023-04-06T00:04:28;6.18;;;5.13;;
14013;SDS011;49110;52.584;13.408;2023-04-06T00:05:29;5.70;;;4.60;;
14013;SDS011;49110;52.584;13.408;2023-04-06T00:06:30;7.27;;;4.00;;
14013;SDS011;49110;52.584;13.408;2023-04-06T00:07:31;4.20;;;3.80;;
14013;SDS011;49110;52.584;13.408;2023-04-06T00:08:33;7.80;;;4.70;;
14013;SDS011;49110;52.584;13.408;2023-04-06T00:09:33;5.30;;;4.00;;
14013;SDS011;49110;52.584;13.408;2023-04-06T00:10:34;4.70;;;4.13;;
14013;SDS011;49110;52.584;13.408;2023-04-06T00:11:35;5.17;;;3.97;;
14013;SDS011;49110;52.584;13.408;2023-04-06T00:12:35;4.73;;;4.23;;
14013;SDS011;49110;52.584;13.408;2023-04-06T00:13:36;5.80;;;4.30;;
14013;SDS011;49110;52.584;13.408;2023-04-06T00:14:36;7.47;;;4.30;;
14013;SDS011;49110;52.584;13.408;2023-04-06T00:15:37;5.63;;;4.40;;
14013;SDS011;49110;52.584;13.408;2023-04-06T00:16:37;4.90;;;4.00;;
14013;SDS011;49110;52.584;13.408;2023-04-06T00:17:38;5.00;;;4.27;;
14013;SDS011;49110;52.584;13.408;2023-04-06T00:18:38;6.03;;;4.50;;
14013;SDS011;49110;52.584;13.408;2023-04-06T00:19:39;5.07;;;4.10;;
14013;SDS011;49110;52.584;13.408;2023-04-06T00:20:40;5.73;;;4.33;;
14013;SDS011;49110;52.584;13.408;2023-04-06T00:21:40;5.93;;;3.93;;
14013;SDS011;49110;52.584;13.408;2023-04-06T00:22:41;5.73;;;4.03;;
14013;SDS011;49110;52.584;13.408;2023-04-06T00:23:41;6.23;;;4.53;;
14013;SDS011;49110;52.584;13.408;2023-04-06T00:24:42;5.73;;;3.73;;
14013;SDS011;49110;52.584;13.408;2023-04-06T00:25:42;4.27;;;3.87;;
14013;SDS011;49110;52.584;13.408;2023-04-06T00:26:43;6.90;;;3.93;;
14013;SDS011;49110;52.584;13.408;2023-04-06T00:27:43;4.93;;;4.43;;
14013;SDS011;49110;52.584;13.408;2023-04-06T00:28:44;6.27;;;4.20;;
14013;SDS011;49110;52.584;13.408;2023-04-06T00:29:44;8.80;;;4.20;;
14013;SDS011;49110;52.584;13.408;2023-04-06T00:30:45;6.63;;;4.20;;
14013;SDS011;49110;52.584;13.408;2023-04-06T00:31:45;6.80;;;4.53;;
14013;SDS011;49110;52.584;13.408;2023-04-06T00:32:46;8.63;;;4.33;;
14013;SDS011;49110;52.584;13.408;2023-04-06T00:33:47;4.80;;;4.23;;
14013;SDS011;49110;52.584;13.408;2023-04-06T00:34:48;5.45;;;4.15;;
14013;SDS011;49110;52.584;13.408;2023-04-06T00:35:48;8.00;;;4.37;;
14013;SDS011;49110;52.584;13.408;2023-04-06T00:36:49;5.70;;;4.13;;
14013;SDS011;49110;52.584;13.408;2023-04-06T00:37:50;4.77;;;3.90;;
14013;SDS011;49110;52.584;13.408;2023-04-06T00:38:50;8.47;;;4.27;;
14013;SDS011;49110;52.584;13.408;2023-04-06T00:39:51;5.10;;;3.97;;
14013;SDS011;49110;52.584;13.408;2023-04-06T00:40:51;6.33;;;3.87;;
14013;SDS011;49110;52.584;13.408;2023-04-06T00:41:52;5.73;;;3.80;;
14013;SDS011;49110;52.584;13.408;2023-04-06T00:42:54;5.93;;;4.30;;
14013;SDS011;49110;52.584;13.408;2023-04-06T00:43:55;6.07;;;4.03;;
14013;SDS011;49110;52.584;13.408;2023-04-06T00:44:57;4.53;;;3.40;;
14013;SDS011;49110;52.584;13.408;2023-04-06T00:45:58;6.45;;;4.30;;
14013;SDS011;49110;52.584;13.408;2023-04-06T00:46:59;5.13;;;3.80;;
14013;SDS011;49110;52.584;13.408;2023-04-06T00:48:00;5.20;;;3.80;;
14013;SDS011;49110;52.584;13.408;2023-04-06T00:49:01;5.93;;;3.42;;
14013;SDS011;49110;52.584;13.408;2023-04-06T00:50:02;4.50;;;3.53;;
14013;SDS011;49110;52.584;13.408;2023-04-06T00:51:02;6.93;;;3.73;;
14013;SDS011;49110;52.584;13.408;2023-04-06T00:52:03;7.50;;;3.73;;
14013;SDS011;49110;52.584;13.408;2023-04-06T00:53:03;5.53;;;3.60;;
14013;SDS011;49110;52.584;13.408;2023-04-06T00:54:04;4.33;;;3.67;;
14013;SDS011;49110;52.584;13.408;2023-04-06T00:55:05;4.47;;;3.67;;
14013;SDS011;49110;52.584;13.408;2023-04-06T00:56:06;6.13;;;4.00;;
14013;SDS011;49110;52.584;13.408;2023-04-06T00:57:11;5.88;;;3.60;;
14013;SDS011;49110;52.584;13.408;2023-04-06T00:58:12;4.40;;;3.83;;
14013;SDS011;49110;52.584;13.408;2023-04-06T00:59:13;5.00;;;3.50;;
14013;SDS011;49110;52.584;13.408;2023-04-06T01:00:13;5.27;;;3.40;;
14013;SDS011;49110;52.584;13.408;2023-04-06T01:01:14;5.80;;;3.90;;
14013;SDS011;49110;52.584;13.408;2023-04-06T01:02:15;5.80;;;3.97;;
14013;SDS011;49110;52.584;13.408;2023-04-06T01:03:15;7.93;;;3.90;;
14013;SDS011;49110;52.584;13.408;2023-04-06T01:04:16;5.97;;;3.50;;
14013;SDS011;49110;52.584;13.408;2023-04-06T01:05:17;4.57;;;3.70;;
14013;SDS011;49110;52.584;13.408;2023-04-06T01:06:17;4.70;;;3.83;;
14013;SDS011;49110;52.584;13.408;2023-04-06T01:07:18;5.17;;;3.77;;
14013;SDS011;49110;52.584;13.408;2023-04-06T01:08:18;4.53;;;3.47;;
14013;SDS011;49110;52.584;13.408;2023-04-06T01:09:19;4.57;;;3.60;;
14013;SDS011;49110;52.584;13.408;2023-04-06T01:10:23;5.23;;;3.37;;
14013;SDS011;49110;52.584;13.408;2023-04-06T01:11:25;5.18;;;3.63;;
14013;SDS011;49110;52.584;13.408;2023-04-06T01:12:26;4.97;;;3.57;;
14013;SDS011;49110;52.584;13.408;2023-04-06T01:13:26;5.57;;;3.87;;
14013;SDS011;49110;52.584;13.408;2023-04-06T01:14:27;5.93;;;3.57;;
14013;SDS011;49110;52.584;13.408;2023-04-06T01:15:28;5.40;;;3.40;;
14013;SDS011;49110;52.584;13.408;2023-04-06T01:16:29;5.53;;;3.70;;
14013;SDS011;49110;52.584;13.408;2023-04-06T01:17:30;4.27;;;3.50;;
14013;SDS011;49110;52.584;13.408;2023-04-06T01:18:30;4.67;;;3.60;;
14013;SDS011;49110;52.584;13.408;2023-04-06T01:19:31;6.13;;;3.43;;
14013;SDS011;49110;52.584;13.408;2023-04-06T01:20:31;5.67;;;3.93;;
14013;SDS011;49110;52.584;13.408;2023-04-06T01:21:32;5.27;;;3.80;;
14013;SDS011;49110;52.584;13.408;2023-04-06T01:22:32;3.63;;;3.33;;
14013;SDS011;49110;52.584;13.408;2023-04-06T01:23:33;5.90;;;3.63;;
14013;SDS011;49110;52.584;13.408;2023-04-06T01:24:33;4.60;;;3.60;;
14013;SDS011;49110;52.584;13.408;2023-04-06T01:25:34;5.70;;;3.50;;
14013;SDS011;49110;52.584;13.408;2023-04-06T01:26:35;6.00;;;3.80;;
14013;SDS011;49110;52.584;13.408;2023-04-06T01:27:35;3.73;;;3.33;;
14013;SDS011;49110;52.584;13.408;2023-04-06T01:28:36;4.53;;;3.53;;
14013;SDS011;49110;52.584;13.408;2023-04-06T01:29:37;4.32;;;3.40;;
14013;SDS011;49110;52.584;13.408;2023-04-06T01:30:40;5.53;;;3.40;;
14013;SDS011;49110;52.584;13.408;2023-04-06T01:31:41;5.83;;;3.67;;
14013;SDS011;49110;52.584;13.408;2023-04-06T01:32:42;4.90;;;3.50;;
14013;SDS011;49110;52.584;13.408;2023-04-06T01:33:42;3.90;;;3.33;;
14013;SDS011;49110;52.584;13.408;2023-04-06T01:34:43;4.87;;;3.80;;
14013;SDS011;49110;52.584;13.408;2023-04-06T01:35:43;4.03;;;3.40;;
14013;SDS011;49110;52.584;13.408;2023-04-06T01:36:44;5.53;;;3.80;;
14013;SDS011;49110;52.584;13.408;2023-04-06T01:37:44;6.03;;;3.53;;
14013;SDS011;49110;52.584;13.408;2023-04-06T01:38:45;3.83;;;3.43;;
14013;SDS011;49110;52.584;13.408;2023-04-06T01:39:46;6.93;;;3.90;;
14013;SDS011;49110;52.584;13.408;2023-04-06T01:40:46;3.67;;;3.20;;
14013;SDS011;49110;52.584;13.408;2023-04-06T01:41:47;4.20;;;3.20;;
14013;SDS011;49110;52.584;13.408;2023-04-06T01:42:47;4.43;;;3.33;;
14013;SDS011;49110;52.584;13.408;2023-04-06T01:43:48;4.53;;;3.13;;
14013;SDS011;49110;52.584;13.408;2023-04-06T01:44:49;4.03;;;3.13;;
14013;SDS011;49110;52.584;13.408;2023-04-06T01:45:49;4.27;;;3.30;;
14013;SDS011;49110;52.584;13.408;2023-04-06T01:46:50;5.47;;;3.40;;
14013;SDS011;49110;52.584;13.408;2023-04-06T01:47:51;5.47;;;3.87;;
14013;SDS011;49110;52.584;13.408;2023-04-06T01:48:51;3.40;;;3.10;;
14013;SDS011;49110;52.584;13.408;2023-04-06T01:49:52;5.13;;;3.40;;
14013;SDS011;49110;52.584;13.408;2023-04-06T01:50:53;6.03;;;3.77;;
14013;SDS011;49110;52.584;13.408;2023-04-06T01:51:54;4.88;;;3.75;;
14013;SDS011;49110;52.584;13.408;2023-04-06T01:52:54;5.90;;;3.33;;
14013;SDS011;49110;52.584;13.408;2023-04-06T01:53:55;7.53;;;3.60;;
14013;SDS011;49110;52.584;13.408;2023-04-06T01:54:55;4.53;;;3.37;;
14013;SDS011;49110;52.584;13.408;2023-04-06T01:55:56;4.57;;;3.43;;
14013;SDS011;49110;52.584;13.408;2023-04-06T01:56:56;5.63;;;3.37;;
14013;SDS011;49110;52.584;13.408;2023-04-06T01:57:57;6.63;;;3.57;;
14013;SDS011;49110;52.584;13.408;2023-04-06T01:58:57;5.80;;;3.70;;
14013;SDS011;49110;52.584;13.408;2023-04-06T01:59:58;5.07;;;3.20;;
14013;SDS011;49110;52.584;13.408;2023-04-06T02:00:58;4.10;;;3.40;;
14013;SDS011;49110;52.584;13.408;2023-04-06T02:01:59;5.90;;;3.30;;
14013;SDS011;49110;52.584;13.408;2023-04-06T02:02:59;3.93;;;3.43;;
14013;SDS011;49110;52.584;13.408;2023-04-06T02:04:00;3.77;;;3.40;;
14013;SDS011;49110;52.584;13.408;2023-04-06T02:05:00;6.33;;;3.43;;
14013;SDS011;49110;52.584;13.408;2023-04-06T02:06:01;5.33;;;3.40;;
14013;SDS011;49110;52.584;13.408;2023-04-06T02:07:01;4.97;;;3.70;;
14013;SDS011;49110;52.584;13.408;2023-04-06T02:08:02;5.10;;;3.43;;
14013;SDS011;49110;52.584;13.408;2023-04-06T02:09:02;4.77;;;3.40;;
14013;SDS011;49110;52.584;13.408;2023-04-06T02:10:03;3.50;;;3.20;;
14013;SDS011;49110;52.584;13.408;2023-04-06T02:11:11;6.88;;;3.83;;
14013;SDS011;49110;52.584;13.408;2023-04-06T02:12:12;6.30;;;3.77;;
14013;SDS011;49110;52.584;13.408;2023-04-06T02:13:12;3.87;;;2.97;;
14013;SDS011;49110;52.584;13.408;2023-04-06T02:14:13;4.83;;;3.40;;
14013;SDS011;49110;52.584;13.408;2023-04-06T02:15:13;5.13;;;3.30;;
14013;SDS011;49110;52.584;13.408;2023-04-06T02:16:14;8.13;;;3.20;;
14013;SDS011;49110;52.584;13.408;2023-04-06T02:17:15;4.18;;;3.30;;
14013;SDS011;49110;52.584;13.408;2023-04-06T02:18:16;4.10;;;3.50;;
14013;SDS011;49110;52.584;13.408;2023-04-06T02:19:18;5.07;;;3.40;;
14013;SDS011;49110;52.584;13.408;2023-04-06T02:20:18;3.50;;;3.20;;
14013;SDS011;49110;52.584;13.408;2023-04-06T02:21:19;5.03;;;3.50;;
14013;SDS011;49110;52.584;13.408;2023-04-06T02:22:20;5.15;;;3.40;;
14013;SDS011;49110;52.584;13.408;2023-04-06T02:23:20;4.60;;;3.23;;
14013;SDS011;49110;52.584;13.408;2023-04-06T02:24:21;5.53;;;3.63;;
14013;SDS011;49110;52.584;13.408;2023-04-06T02:25:21;5.43;;;3.67;;
14013;SDS011;49110;52.584;13.408;2023-04-06T02:26:21;4.60;;;3.37;;
14013;SDS011;49110;52.584;13.408;2023-04-06T02:27:22;5.93;;;3.80;;
14013;SDS011;49110;52.584;13.408;2023-04-06T02:28:24;6.03;;;3.42;;
14013;SDS011;49110;52.584;13.408;2023-04-06T02:29:24;5.37;;;3.63;;
14013;SDS011;49110;52.584;13.408;2023-04-06T02:30:25;6.17;;;3.63;;
14013;SDS011;49110;52.584;13.408;2023-04-06T02:31:25;4.17;;;3.37;;
14013;SDS011;49110;52.584;13.408;2023-04-06T02:32:26;6.27;;;3.63;;
14013;SDS011;49110;52.584;13.408;2023-04-06T02:33:26;5.33;;;3.40;;
14013;SDS011;49110;52.584;13.408;2023-04-06T02:34:27;6.10;;;3.60;;
14013;SDS011;49110;52.584;13.408;2023-04-06T02:35:28;7.07;;;3.50;;
14013;SDS011;49110;52.584;13.408;2023-04-06T02:36:29;5.18;;;3.53;;
14013;SDS011;49110;52.584;13.408;2023-04-06T02:37:30;4.73;;;3.40;;
14013;SDS011;49110;52.584;13.408;2023-04-06T02:38:31;4.47;;;3.23;;
14013;SDS011;49110;52.584;13.408;2023-04-06T02:39:31;7.33;;;4.03;;
14013;SDS011;49110;52.584;13.408;2023-04-06T02:40:32;6.50;;;3.77;;
14013;SDS011;49110;52.584;13.408;2023-04-06T02:41:32;3.73;;;3.33;;
14013;SDS011;49110;52.584;13.408;2023-04-06T02:42:32;4.77;;;3.70;;
14013;SDS011;49110;52.584;13.408;2023-04-06T02:43:34;6.05;;;3.50;;
14013;SDS011;49110;52.584;13.408;2023-04-06T02:44:35;6.40;;;4.10;;
14013;SDS011;49110;52.584;13.408;2023-04-06T02:45:35;6.80;;;3.67;;
14013;SDS011;49110;52.584;13.408;2023-04-06T02:46:36;6.53;;;3.80;;
14013;SDS011;49110;52.584;13.408;2023-04-06T02:47:36;5.03;;;3.33;;
14013;SDS011;49110;52.584;13.408;2023-04-06T02:48:37;5.47;;;3.40;;
14013;SDS011;49110;52.584;13.408;2023-04-06T02:49:37;5.33;;;3.53;;
14013;SDS011;49110;52.584;13.408;2023-04-06T02:50:38;4.27;;;3.63;;
14013;SDS011;49110;52.584;13.408;2023-04-06T02:51:38;6.03;;;3.47;;
14013;SDS011;49110;52.584;13.408;2023-04-06T02:52:39;5.43;;;3.83;;
14013;SDS011;49110;52.584;13.408;2023-04-06T02:53:39;6.80;;;3.80;;
14013;SDS011;49110;52.584;13.408;2023-04-06T02:54:40;4.53;;;3.60;;
14013;SDS011;49110;52.584;13.408;2023-04-06T02:55:40;5.10;;;3.50;;
14013;SDS011;49110;52.584;13.408;2023-04-06T02:56:41;7.90;;;3.70;;
14013;SDS011;49110;52.584;13.408;2023-04-06T02:57:41;4.53;;;3.87;;
14013;SDS011;49110;52.584;13.408;2023-04-06T02:58:42;8.57;;;5.20;;
14013;SDS011;49110;52.584;13.408;2023-04-06T02:59:42;7.27;;;4.60;;
14013;SDS011;49110;52.584;13.408;2023-04-06T03:00:43;9.60;;;4.17;;
14013;SDS011;49110;52.584;13.408;2023-04-06T03:01:43;6.53;;;3.90;;
14013;SDS011;49110;52.584;13.408;2023-04-06T03:02:44;5.07;;;3.93;;
14013;SDS011;49110;52.584;13.408;2023-04-06T03:03:44;6.50;;;3.70;;
14013;SDS011;49110;52.584;13.408;2023-04-06T03:04:45;5.47;;;3.80;;
14013;SDS011;49110;52.584;13.408;2023-04-06T03:05:45;8.93;;;3.93;;
14013;SDS011;49110;52.584;13.408;2023-04-06T03:06:47;7.85;;;4.00;;
14013;SDS011;49110;52.584;13.408;2023-04-06T03:07:47;6.03;;;3.43;;
14013;SDS011;49110;52.584;13.408;2023-04-06T03:08:48;6.93;;;4.33;;
14013;SDS011;49110;52.584;13.408;2023-04-06T03:09:48;5.53;;;4.00;;
14013;SDS011;49110;52.584;13.408;2023-04-06T03:10:49;5.63;;;3.93;;
14013;SDS011;49110;52.584;13.408;2023-04-06T03:11:50;5.80;;;3.93;;
14013;SDS011;49110;52.584;13.408;2023-04-06T03:12:51;5.17;;;4.20;;
14013;SDS011;49110;52.584;13.408;2023-04-06T03:13:51;7.03;;;4.57;;
14013;SDS011;49110;52.584;13.408;2023-04-06T03:14:52;5.70;;;4.10;;
14013;SDS011;49110;52.584;13.408;2023-04-06T03:15:52;6.30;;;3.90;;
14013;SDS011;49110;52.584;13.408;2023-04-06T03:16:53;7.13;;;4.47;;
14013;SDS011;49110;52.584;13.408;2023-04-06T03:17:53;9.27;;;4.97;;
14013;SDS011;49110;52.584;13.408;2023-04-06T03:18:53;5.63;;;4.13;;
14013;SDS011;49110;52.584;13.408;2023-04-06T03:19:54;6.37;;;4.80;;
14013;SDS011;49110;52.584;13.408;2023-04-06T03:20:55;9.93;;;4.83;;
14013;SDS011;49110;52.584;13.408;2023-04-06T03:21:55;6.70;;;4.63;;
14013;SDS011;49110;52.584;13.408;2023-04-06T03:22:56;7.13;;;4.67;;
14013;SDS011;49110;52.584;13.408;2023-04-06T03:23:56;8.73;;;4.53;;
14013;SDS011;49110;52.584;13.408;2023-04-06T03:24:57;7.07;;;4.30;;
14013;SDS011;49110;52.584;13.408;2023-04-06T03:25:57;7.53;;;4.03;;
14013;SDS011;49110;52.584;13.408;2023-04-06T03:26:58;8.67;;;4.73;;
14013;SDS011;49110;52.584;13.408;2023-04-06T03:27:58;5.83;;;4.00;;
14013;SDS011;49110;52.584;13.408;2023-04-06T03:28:58;8.10;;;4.70;;
14013;SDS011;49110;52.584;13.408;2023-04-06T03:29:59;8.60;;;5.10;;
14013;SDS011;49110;52.584;13.408;2023-04-06T03:31:00;5.37;;;4.67;;
14013;SDS011;49110;52.584;13.408;2023-04-06T03:32:00;7.97;;;4.90;;
14013;SDS011;49110;52.584;13.408;2023-04-06T03:33:01;6.37;;;4.60;;
14013;SDS011;49110;52.584;13.408;2023-04-06T03:34:01;5.43;;;4.73;;
14013;SDS011;49110;52.584;13.408;2023-04-06T03:35:01;5.67;;;4.70;;
14013;SDS011;49110;52.584;13.408;2023-04-06T03:36:02;6.67;;;4.60;;
14013;SDS011;49110;52.584;13.408;2023-04-06T03:37:03;6.55;;;4.95;;
14013;SDS011;49110;52.584;13.408;2023-04-06T03:38:04;7.37;;;5.00;;
14013;SDS011;49110;52.584;13.408;2023-04-06T03:39:05;6.53;;;5.27;;
14013;SDS011;49110;52.584;13.408;2023-04-06T03:40:06;8.00;;;5.33;;
14013;SDS011;49110;52.584;13.408;2023-04-06T03:41:06;7.60;;;5.33;;
14013;SDS011;49110;52.584;13.408;2023-04-06T03:42:07;6.93;;;5.00;;
14013;SDS011;49110;52.584;13.408;2023-04-06T03:43:07;5.87;;;4.83;;
14013;SDS011;49110;52.584;13.408;2023-04-06T03:44:08;11.13;;;5.50;;
14013;SDS011;49110;52.584;13.408;2023-04-06T03:45:09;10.00;;;5.80;;
14013;SDS011;49110;52.584;13.408;2023-04-06T03:46:10;8.50;;;5.37;;
14013;SDS011;49110;52.584;13.408;2023-04-06T03:47:10;8.47;;;5.27;;
14013;SDS011;49110;52.584;13.408;2023-04-06T03:48:11;8.13;;;5.20;;
14013;SDS011;49110;52.584;13.408;2023-04-06T03:49:11;7.43;;;5.03;;
14013;SDS011;49110;52.584;13.408;2023-04-06T03:50:12;9.60;;;6.00;;
14013;SDS011;49110;52.584;13.408;2023-04-06T03:51:12;6.70;;;5.60;;
14013;SDS011;49110;52.584;13.408;2023-04-06T03:52:13;8.77;;;5.23;;
14013;SDS011;49110;52.584;13.408;2023-04-06T03:53:13;8.07;;;5.77;;
14013;SDS011;49110;52.584;13.408;2023-04-06T03:54:14;10.47;;;5.27;;
14013;SDS011;49110;52.584;13.408;2023-04-06T03:55:14;11.50;;;6.10;;
14013;SDS011;49110;52.584;13.408;2023-04-06T03:56:15;6.90;;;5.67;;
14013;SDS011;49110;52.584;13.408;2023-04-06T03:57:15;7.97;;;5.97;;
14013;SDS011;49110;52.584;13.408;2023-04-06T03:58:16;9.37;;;5.70;;
14013;SDS011;49110;52.584;13.408;2023-04-06T03:59:16;8.10;;;5.40;;
14013;SDS011;49110;52.584;13.408;2023-04-06T04:00:17;9.40;;;5.80;;
14013;SDS011;49110;52.584;13.408;2023-04-06T04:01:17;7.73;;;5.87;;
14013;SDS011;49110;52.584;13.408;2023-04-06T04:02:18;8.40;;;5.50;;
14013;SDS011;49110;52.584;13.408;2023-04-06T04:03:18;9.20;;;5.73;;
14013;SDS011;49110;52.584;13.408;2023-04-06T04:04:19;7.43;;;5.47;;
14013;SDS011;49110;52.584;13.408;2023-04-06T04:05:19;7.43;;;5.60;;
14013;SDS011;49110;52.584;13.408;2023-04-06T04:06:24;6.75;;;5.45;;
14013;SDS011;49110;52.584;13.408;2023-04-06T04:07:25;6.27;;;5.33;;
14013;SDS011;49110;52.584;13.408;2023-04-06T04:08:25;9.77;;;5.87;;
14013;SDS011;49110;52.584;13.408;2023-04-06T04:09:26;7.27;;;5.43;;
14013;SDS011;49110;52.584;13.408;2023-04-06T04:10:26;6.83;;;5.63;;
14013;SDS011;49110;52.584;13.408;2023-04-06T04:11:27;6.80;;;5.53;;
14013;SDS011;49110;52.584;13.408;2023-04-06T04:12:27;10.00;;;5.80;;
14013;SDS011;49110;52.584;13.408;2023-04-06T04:13:28;7.80;;;5.77;;
14013;SDS011;49110;52.584;13.408;2023-04-06T04:14:28;9.50;;;5.93;;
14013;SDS011;49110;52.584;13.408;2023-04-06T04:15:29;7.87;;;5.97;;
14013;SDS011;49110;52.584;13.408;2023-04-06T04:16:30;7.50;;;5.93;;
14013;SDS011;49110;52.584;13.408;2023-04-06T04:17:30;8.35;;;5.60;;
14013;SDS011;49110;52.584;13.408;2023-04-06T04:18:31;8.67;;;5.90;;
14013;SDS011;49110;52.584;13.408;2023-04-06T04:19:31;10.30;;;6.70;;
14013;SDS011;49110;52.584;13.408;2023-04-06T04:20:32;11.70;;;6.13;;
14013;SDS011;49110;52.584;13.408;2023-04-06T04:21:32;10.20;;;6.67;;
14013;SDS011;49110;52.584;13.408;2023-04-06T04:22:33;11.37;;;6.37;;
14013;SDS011;49110;52.584;13.408;2023-04-06T04:23:33;10.47;;;6.27;;
14013;SDS011;49110;52.584;13.408;2023-04-06T04:24:34;11.23;;;6.37;;
14013;SDS011;49110;52.584;13.408;2023-04-06T04:25:34;9.70;;;6.50;;
14013;SDS011;49110;52.584;13.408;2023-04-06T04:26:35;13.40;;;6.80;;
14013;SDS011;49110;52.584;13.408;2023-04-06T04:27:35;14.67;;;6.73;;
14013;SDS011;49110;52.584;13.408;2023-04-06T04:28:36;14.10;;;5.97;;
14013;SDS011;49110;52.584;13.408;2023-04-06T04:29:36;10.13;;;6.23;;
14013;SDS011;49110;52.584;13.408;2023-04-06T04:30:37;7.93;;;6.60;;
14013;SDS011;49110;52.584;13.408;2023-04-06T04:31:37;11.27;;;7.17;;
14013;SDS011;49110;52.584;13.408;2023-04-06T04:32:38;8.10;;;6.20;;
14013;SDS011;49110;52.584;13.408;2023-04-06T04:33:38;9.63;;;6.40;;
14013;SDS011;49110;52.584;13.408;2023-04-06T04:34:39;11.30;;;6.43;;
14013;SDS011;49110;52.584;13.408;2023-04-06T04:35:42;9.02;;;6.53;;
14013;SDS011;49110;52.584;13.408;2023-04-06T04:36:42;12.10;;;6.23;;
14013;SDS011;49110;52.584;13.408;2023-04-06T04:37:43;10.33;;;6.77;;
14013;SDS011;49110;52.584;13.408;2023-04-06T04:38:43;9.30;;;6.83;;
14013;SDS011;49110;52.584;13.408;2023-04-06T04:39:44;10.37;;;7.27;;
14013;SDS011;49110;52.584;13.408;2023-04-06T04:40:45;10.40;;;6.40;;
14013;SDS011;49110;52.584;13.408;2023-04-06T04:41:45;11.30;;;6.53;;
14013;SDS011;49110;52.584;13.408;2023-04-06T04:42:46;12.53;;;6.70;;
14013;SDS011;49110;52.584;13.408;2023-04-06T04:43:46;7.97;;;6.73;;
14013;SDS011;49110;52.584;13.408;2023-04-06T04:44:47;9.37;;;6.63;;
14013;SDS011;49110;52.584;13.408;2023-04-06T04:45:47;10.43;;;6.83;;
14013;SDS011;49110;52.584;13.408;2023-04-06T04:46:48;11.73;;;6.80;;
14013;SDS011;49110;52.584;13.408;2023-04-06T04:47:48;8.63;;;6.80;;
14013;SDS011;49110;52.584;13.408;2023-04-06T04:48:49;15.07;;;7.60;;
14013;SDS011;49110;52.584;13.408;2023-04-06T04:49:50;10.83;;;7.10;;
14013;SDS011;49110;52.584;13.408;2023-04-06T04:50:50;10.57;;;7.17;;
14013;SDS011;49110;52.584;13.408;2023-04-06T04:51:50;14.23;;;7.20;;
14013;SDS011;49110;52.584;13.408;2023-04-06T04:52:52;11.40;;;7.72;;
14013;SDS011;49110;52.584;13.408;2023-04-06T04:53:52;12.90;;;7.50;;
14013;SDS011;49110;52.584;13.408;2023-04-06T04:54:53;10.70;;;7.30;;
14013;SDS011;49110;52.584;13.408;2023-04-06T04:55:53;11.20;;;7.63;;
14013;SDS011;49110;52.584;13.408;2023-04-06T04:56:54;11.23;;;7.67;;
14013;SDS011;49110;52.584;13.408;2023-04-06T04:57:54;11.67;;;8.07;;
14013;SDS011;49110;52.584;13.408;2023-04-06T04:58:55;16.37;;;7.80;;
14013;SDS011;49110;52.584;13.408;2023-04-06T04:59:55;15.83;;;8.20;;
14013;SDS011;49110;52.584;13.408;2023-04-06T05:00:57;12.68;;;8.07;;
14013;SDS011;49110;52.584;13.408;2023-04-06T05:01:57;13.57;;;7.57;;
14013;SDS011;49110;52.584;13.408;2023-04-06T05:02:58;12.70;;;8.20;;
14013;SDS011;49110;52.584;13.408;2023-04-06T05:03:58;16.07;;;7.60;;
14013;SDS011;49110;52.584;13.408;2023-04-06T05:04:58;11.93;;;8.07;;
14013;SDS011;49110;52.584;13.408;2023-04-06T05:05:59;11.50;;;7.50;;
14013;SDS011;49110;52.584;13.408;2023-04-06T05:07:03;11.57;;;8.67;;
14013;SDS011;49110;52.584;13.408;2023-04-06T05:08:05;11.50;;;7.50;;
14013;SDS011;49110;52.584;13.408;2023-04-06T05:09:05;14.23;;;7.53;;
14013;SDS011;49110;52.584;13.408;2023-04-06T05:10:06;13.60;;;8.23;;
14013;SDS011;49110;52.584;13.408;2023-04-06T05:11:06;14.43;;;7.27;;
14013;SDS011;49110;52.584;13.408;2023-04-06T05:12:07;11.37;;;7.50;;
14013;SDS011;49110;52.584;13.408;2023-04-06T05:13:08;10.68;;;7.22;;
14013;SDS011;49110;52.584;13.408;2023-04-06T05:14:09;13.40;;;7.63;;
14013;SDS011;49110;52.584;13.408;2023-04-06T05:15:10;15.10;;;7.73;;
14013;SDS011;49110;52.584;13.408;2023-04-06T05:16:10;12.53;;;7.93;;
14013;SDS011;49110;52.584;13.408;2023-04-06T05:17:11;12.87;;;7.73;;
14013;SDS011;49110;52.584;13.408;2023-04-06T05:18:11;10.57;;;7.23;;
14013;SDS011;49110;52.584;13.408;2023-04-06T05:19:12;14.17;;;7.80;;
14013;SDS011;49110;52.584;13.408;2023-04-06T05:20:13;10.20;;;7.63;;
14013;SDS011;49110;52.584;13.408;2023-04-06T05:21:13;11.57;;;6.90;;
14013;SDS011;49110;52.584;13.408;2023-04-06T05:22:14;11.00;;;7.23;;
14013;SDS011;49110;52.584;13.408;2023-04-06T05:23:17;11.73;;;7.13;;
14013;SDS011;49110;52.584;13.408;2023-04-06T05:24:17;11.60;;;7.27;;
14013;SDS011;49110;52.584;13.408;2023-04-06T05:25:18;7.93;;;6.37;;
14013;SDS011;49110;52.584;13.408;2023-04-06T05:26:18;11.10;;;7.30;;
14013;SDS011;49110;52.584;13.408;2023-04-06T05:27:19;8.67;;;6.87;;
14013;SDS011;49110;52.584;13.408;2023-04-06T05:28:20;9.97;;;7.27;;
14013;SDS011;49110;52.584;13.408;2023-04-06T05:29:20;10.83;;;7.30;;
14013;SDS011;49110;52.584;13.408;2023-04-06T05:30:21;10.23;;;7.17;;
14013;SDS011;49110;52.584;13.408;2023-04-06T05:31:22;13.93;;;7.03;;
14013;SDS011;49110;52.584;13.408;2023-04-06T05:32:22;13.90;;;7.27;;
14013;SDS011;49110;52.584;13.408;2023-04-06T05:33:24;12.13;;;6.57;;
14013;SDS011;49110;52.584;13.408;2023-04-06T05:34:26;11.10;;;6.53;;
14013;SDS011;49110;52.584;13.408;2023-04-06T05:35:26;8.70;;;6.57;;
14013;SDS011;49110;52.584;13.408;2023-04-06T05:36:27;8.93;;;6.33;;
14013;SDS011;49110;52.584;13.408;2023-04-06T05:37:27;13.07;;;6.33;;
14013;SDS011;49110;52.584;13.408;2023-04-06T05:38:28;8.90;;;6.20;;
14013;SDS011;49110;52.584;13.408;2023-04-06T05:39:28;10.27;;;6.50;;
14013;SDS011;49110;52.584;13.408;2023-04-06T05:40:29;13.47;;;6.97;;
14013;SDS011;49110;52.584;13.408;2023-04-06T05:41:29;11.43;;;6.70;;
14013;SDS011;49110;52.584;13.408;2023-04-06T05:42:36;11.60;;;6.83;;
14013;SDS011;49110;52.584;13.408;2023-04-06T05:43:41;10.85;;;6.55;;
14013;SDS011;49110;52.584;13.408;2023-04-06T05:44:41;14.30;;;7.03;;
14013;SDS011;49110;52.584;13.408;2023-04-06T05:45:45;13.23;;;7.20;;
14013;SDS011;49110;52.584;13.408;2023-04-06T05:46:46;9.68;;;6.28;;
14013;SDS011;49110;52.584;13.408;2023-04-06T05:47:46;9.90;;;6.90;;
14013;SDS011;49110;52.584;13.408;2023-04-06T05:48:47;11.20;;;6.93;;
14013;SDS011;49110;52.584;13.408;2023-04-06T05:49:47;8.80;;;6.70;;
14013;SDS011;49110;52.584;13.408;2023-04-06T05:50:48;11.97;;;6.10;;
14013;SDS011;49110;52.584;13.408;2023-04-06T05:51:50;10.18;;;6.88;;
14013;SDS011;49110;52.584;13.408;2023-04-06T05:52:50;13.67;;;6.97;;
14013;SDS011;49110;52.584;13.408;2023-04-06T05:53:51;9.27;;;6.27;;
14013;SDS011;49110;52.584;13.408;2023-04-06T05:54:52;12.40;;;7.23;;
14013;SDS011;49110;52.584;13.408;2023-04-06T05:55:52;9.73;;;6.37;;
14013;SDS011;49110;52.584;13.408;2023-04-06T05:56:52;11.43;;;7.03;;
14013;SDS011;49110;52.584;13.408;2023-04-06T05:57:53;8.60;;;6.43;;
14013;SDS011;49110;52.584;13.408;2023-04-06T05:58:53;9.27;;;6.57;;